createdAt,value
2018-09-18T00:01:06.840Z,99289.97
2018-09-18T00:03:35.400Z,99293.52
2018-09-18T00:06:04.012Z,99292.37
2018-09-18T00:08:38.989Z,99295.95
2018-09-18T00:11:07.592Z,99291.45
2018-09-18T00:13:36.364Z,99290.88
2018-09-18T00:16:05.380Z,99288.63
2018-09-18T00:18:34.019Z,99284.70
2018-09-18T00:21:02.580Z,99284.66
2018-09-18T00:23:31.078Z,99275.30
2018-09-18T00:26:06.194Z,99281.42
2018-09-18T00:28:39.322Z,99285.19
2018-09-18T00:31:12.853Z,99282.35
2018-09-18T00:33:46.774Z,99289.17
2018-09-18T00:36:21.847Z,99283.14
2018-09-18T00:38:55.917Z,99276.20
2018-09-18T00:41:32.097Z,99278.89
2018-09-18T00:44:06.400Z,99268.67
2018-09-18T00:46:42.213Z,99268.59
2018-09-18T00:49:15.981Z,99270.73
2018-09-18T00:51:51.270Z,99268.80
2018-09-18T00:54:29.801Z,99266.61
2018-09-18T00:57:05.457Z,99278.84
2018-09-18T01:00:10.540Z,99269.36
2018-09-18T01:03:25.408Z,99262.17
2018-09-18T01:05:58.756Z,99264.23
2018-09-18T01:08:34.276Z,99261.71
2018-09-18T01:11:08.764Z,99264.44
2018-09-18T01:13:43.975Z,99261.72
2018-09-18T01:16:12.784Z,99263.33
2018-09-18T01:18:47.853Z,99265.23
2018-09-18T01:21:22.637Z,99257.60
2018-09-18T01:23:58.444Z,99259.00
2018-09-18T01:26:34.186Z,99262.81
2018-09-18T01:29:09.054Z,99259.45
2018-09-18T01:31:42.622Z,99262.72
2018-09-18T01:34:17.460Z,99261.98
2018-09-18T01:36:51.513Z,99260.48
2018-09-18T01:39:20.274Z,99259.35
2018-09-18T01:41:48.840Z,99259.98
2018-09-18T01:44:17.376Z,99262.27
2018-09-18T01:46:45.940Z,99261.25
2018-09-18T01:49:14.492Z,99257.80
2018-09-18T01:51:43.021Z,99258.53
2018-09-18T01:54:11.625Z,99256.89
2018-09-18T01:56:40.209Z,99252.12
2018-09-18T01:59:08.784Z,99253.40
2018-09-18T02:01:39.008Z,99249.41
2018-09-18T02:04:07.644Z,99242.21
2018-09-18T02:06:36.187Z,99239.62
2018-09-18T02:09:05.948Z,99239.45
2018-09-18T02:11:34.488Z,99242.28
2018-09-18T02:14:03.055Z,99235.95
2018-09-18T02:16:31.577Z,99239.20
2018-09-18T02:19:00.128Z,99236.08
2018-09-18T02:21:28.655Z,99242.86
2018-09-18T02:23:57.216Z,99246.13
2018-09-18T02:26:25.756Z,99243.14
2018-09-18T02:28:54.330Z,99235.07
2018-09-18T02:31:22.857Z,99245.14
2018-09-18T02:33:51.413Z,99244.44
2018-09-18T02:36:20.034Z,99247.66
2018-09-18T02:38:49.047Z,99246.75
2018-09-18T02:41:17.605Z,99241.59
2018-09-18T02:43:46.469Z,99245.64
2018-09-18T02:46:15.058Z,99241.52
2018-09-18T02:48:43.719Z,99240.48
2018-09-18T02:51:12.323Z,99248.78
2018-09-18T02:53:40.888Z,99261.03
2018-09-18T02:56:09.444Z,99266.52
2018-09-18T02:58:38.004Z,99259.98
2018-09-18T03:01:06.536Z,99259.84
2018-09-18T03:03:35.099Z,99259.32
2018-09-18T03:06:03.613Z,99251.84
2018-09-18T03:08:32.197Z,99250.73
2018-09-18T03:11:00.736Z,99257.60
2018-09-18T03:13:29.355Z,99257.32
2018-09-18T03:15:57.888Z,99253.86
2018-09-18T03:18:26.475Z,99250.27
2018-09-18T03:20:55.059Z,99251.14
2018-09-18T03:23:23.625Z,99254.54
2018-09-18T03:25:52.145Z,99256.05
2018-09-18T03:28:20.762Z,99256.00
2018-09-18T03:30:49.288Z,99254.00
2018-09-18T03:33:17.908Z,99256.09
2018-09-18T03:35:46.613Z,99255.86
2018-09-18T03:38:15.089Z,99251.12
2018-09-18T03:40:43.652Z,99252.30
2018-09-18T03:43:12.192Z,99251.77
2018-09-18T03:45:40.774Z,99245.34
2018-09-18T03:48:09.380Z,99244.91
2018-09-18T03:50:37.976Z,99243.30
2018-09-18T03:53:06.495Z,99248.66
2018-09-18T03:55:35.045Z,99240.00
2018-09-18T03:58:03.583Z,99239.30
2018-09-18T04:00:32.148Z,99241.98
2018-09-18T04:03:00.694Z,99243.97
2018-09-18T04:05:29.261Z,99244.86
2018-09-18T04:07:57.813Z,99246.66
2018-09-18T04:10:26.365Z,99254.69
2018-09-18T04:12:54.908Z,99243.55
2018-09-18T04:15:23.576Z,99245.34
2018-09-18T04:17:52.192Z,99251.17
2018-09-18T04:20:20.786Z,99245.97
2018-09-18T04:22:49.318Z,99245.19
2018-09-18T04:25:18.247Z,99237.09
2018-09-18T04:27:48.106Z,99245.57
2018-09-18T04:30:18.345Z,99237.16
2018-09-18T04:32:46.919Z,99245.84
2018-09-18T04:35:15.481Z,99241.98
2018-09-18T04:37:44.104Z,99243.64
2018-09-18T04:40:12.720Z,99253.47
2018-09-18T04:42:41.388Z,99248.02
2018-09-18T04:45:12.174Z,99248.75
2018-09-18T04:47:41.593Z,99243.41
2018-09-18T04:50:10.906Z,99248.84
2018-09-18T04:52:39.432Z,99241.88
2018-09-18T04:55:08.815Z,99241.45
2018-09-18T04:57:37.840Z,99235.66
2018-09-18T05:00:07.996Z,99237.81
2018-09-18T05:02:40.510Z,99236.53
2018-09-18T05:05:09.513Z,99234.19
2018-09-18T05:07:38.964Z,99235.35
2018-09-18T05:10:07.586Z,99239.40
2018-09-18T05:12:36.805Z,99234.97
2018-09-18T05:15:06.486Z,99249.92
2018-09-18T05:17:35.139Z,99249.28
2018-09-18T05:20:04.578Z,99252.34
2018-09-18T05:22:33.790Z,99250.11
2018-09-18T05:25:04.239Z,99247.52
2018-09-18T05:27:32.764Z,99247.77
2018-09-18T05:30:01.867Z,99253.51
2018-09-18T05:32:30.905Z,99253.66
2018-09-18T05:35:00.057Z,99251.96
2018-09-18T05:37:28.586Z,99254.75
2018-09-18T05:39:57.116Z,99255.86
2018-09-18T05:42:25.672Z,99253.49
2018-09-18T05:44:54.500Z,99255.76
2018-09-18T05:47:23.056Z,99253.43
2018-09-18T05:49:51.643Z,99263.37
2018-09-18T05:52:20.227Z,99259.02
2018-09-18T05:54:48.757Z,99269.64
2018-09-18T05:57:17.692Z,99273.95
2018-09-18T05:59:46.253Z,99274.48
2018-09-18T06:02:14.823Z,99289.78
2018-09-18T06:04:43.377Z,99287.72
2018-09-18T06:07:11.956Z,99278.92
2018-09-18T06:09:40.489Z,99286.61
2018-09-18T06:12:09.087Z,99285.70
2018-09-18T06:14:37.618Z,99287.61
2018-09-18T06:17:06.181Z,99285.80
2018-09-18T06:19:35.560Z,99291.06
2018-09-18T06:22:04.125Z,99285.91
2018-09-18T06:24:32.729Z,99283.36
2018-09-18T06:27:01.294Z,99295.24
2018-09-18T06:29:29.844Z,99290.64
2018-09-18T06:31:58.418Z,99292.46
2018-09-18T06:34:26.949Z,99293.27
2018-09-18T06:36:55.637Z,99290.61
2018-09-18T06:39:24.140Z,99287.91
2018-09-18T06:41:52.699Z,99292.08
2018-09-18T06:44:21.234Z,99290.22
2018-09-18T06:46:49.787Z,99283.47
2018-09-18T06:49:18.313Z,99287.35
2018-09-18T06:51:46.929Z,99282.84
2018-09-18T06:54:15.467Z,99280.57
2018-09-18T06:56:44.033Z,99278.80
2018-09-18T06:59:12.562Z,99283.98
2018-09-18T07:01:41.138Z,99284.59
2018-09-18T07:04:09.925Z,99284.95
2018-09-18T07:06:38.601Z,99286.41
2018-09-18T07:09:08.448Z,99290.12
2018-09-18T07:11:37.356Z,99287.62
2018-09-18T07:14:06.027Z,99295.41
2018-09-18T07:16:34.893Z,99293.25
2018-09-18T07:19:03.432Z,99293.37
2018-09-18T07:21:32.003Z,99295.76
2018-09-18T07:24:00.596Z,99296.45
2018-09-18T07:26:29.166Z,99300.73
2018-09-18T07:28:57.709Z,99308.30
2018-09-18T07:31:26.248Z,99312.56
2018-09-18T07:33:54.884Z,99319.85
2018-09-18T07:36:23.400Z,99320.02
2018-09-18T07:38:51.961Z,99315.70
2018-09-18T07:41:27.099Z,99312.95
2018-09-18T07:43:55.656Z,99315.62
2018-09-18T07:46:24.180Z,99316.61
2018-09-18T07:48:52.846Z,99322.73
2018-09-18T07:51:21.388Z,99317.92
2018-09-18T07:53:50.072Z,99324.87
2018-09-18T07:56:18.604Z,99317.11
2018-09-18T07:58:48.069Z,99323.54
2018-09-18T08:01:23.866Z,99318.59
2018-09-18T08:03:52.702Z,99316.98
2018-09-18T08:06:21.229Z,99315.78
2018-09-18T08:08:53.550Z,99315.33
2018-09-18T08:11:22.130Z,99301.05
2018-09-18T08:13:50.920Z,99309.71
2018-09-18T08:16:19.455Z,99311.76
2018-09-18T08:18:48.138Z,99314.59
2018-09-18T08:21:16.630Z,99312.77
2018-09-18T08:23:45.205Z,99315.41
2018-09-18T08:26:13.736Z,99321.25
2018-09-18T08:28:42.311Z,99318.06
2018-09-18T08:31:10.844Z,99323.89
2018-09-18T08:33:39.429Z,99327.95
2018-09-18T08:36:08.069Z,99328.63
2018-09-18T08:38:36.620Z,99327.37
2018-09-18T08:41:05.230Z,99328.03
2018-09-18T08:43:34.305Z,99324.20
2018-09-18T08:46:02.853Z,99328.70
2018-09-18T08:48:32.339Z,99320.52
2018-09-18T08:51:01.894Z,99314.23
2018-09-18T08:53:31.589Z,99334.23
2018-09-18T08:56:00.186Z,99323.09
2018-09-18T08:58:28.732Z,99325.66
2018-09-18T09:00:57.384Z,99328.64
2018-09-18T09:03:25.956Z,99331.08
2018-09-18T09:05:54.543Z,99333.69
2018-09-18T09:08:23.179Z,99333.41
2018-09-18T09:10:51.641Z,99331.20
2018-09-18T09:13:20.238Z,99338.59
2018-09-18T09:15:48.748Z,99340.91
2018-09-18T09:18:17.387Z,99343.65
2018-09-18T09:20:45.932Z,99337.13
2018-09-18T09:23:14.532Z,99341.80
2018-09-18T09:25:43.121Z,99339.83
2018-09-18T09:28:11.650Z,99337.29
2018-09-18T09:30:40.209Z,99343.41
2018-09-18T09:33:08.778Z,99333.05
2018-09-18T09:35:37.335Z,99334.08
2018-09-18T09:38:06.118Z,99335.92
2018-09-18T09:40:34.681Z,99341.94
2018-09-18T09:43:03.224Z,99336.63
2018-09-18T09:45:31.804Z,99339.84
2018-09-18T09:48:00.315Z,99346.02
2018-09-18T09:50:28.900Z,99330.51
2018-09-18T09:52:57.429Z,99327.49
2018-09-18T09:55:26.039Z,99328.83
2018-09-18T09:57:54.580Z,99321.98
2018-09-18T10:00:28.341Z,99331.53
2018-09-18T10:02:56.898Z,99332.28
2018-09-18T10:05:25.457Z,99328.80
2018-09-18T10:07:54.012Z,99326.62
2018-09-18T10:10:22.613Z,99328.03
2018-09-18T10:12:51.132Z,99320.41
2018-09-18T10:15:19.743Z,99320.67
2018-09-18T10:17:48.339Z,99320.16
2018-09-18T10:20:16.827Z,99317.75
2018-09-18T10:22:45.362Z,99315.58
2018-09-18T10:25:13.967Z,99316.16
2018-09-18T10:27:42.510Z,99316.20
2018-09-18T10:30:11.084Z,99308.81
2018-09-18T10:32:39.770Z,99308.97
2018-09-18T10:35:08.299Z,99304.73
2018-09-18T10:37:36.906Z,99305.25
2018-09-18T10:40:05.543Z,99303.66
2018-09-18T10:42:34.086Z,99296.33
2018-09-18T10:45:02.652Z,99298.34
2018-09-18T10:47:31.205Z,99296.52
2018-09-18T10:50:02.135Z,99296.05
2018-09-18T10:52:31.509Z,99291.05
2018-09-18T10:55:00.904Z,99290.72
2018-09-18T10:57:29.471Z,99279.59
2018-09-18T10:59:58.149Z,99291.36
2018-09-18T11:02:26.686Z,99287.59
2018-09-18T11:04:55.453Z,99284.70
2018-09-18T11:07:24.214Z,99287.49
2018-09-18T11:09:53.053Z,99283.33
2018-09-18T11:12:21.660Z,99283.33
2018-09-18T11:14:50.192Z,99282.83
2018-09-18T11:17:18.765Z,99285.29
2018-09-18T11:19:48.689Z,99275.34
2018-09-18T11:22:18.300Z,99277.63
2018-09-18T11:24:46.841Z,99275.92
2018-09-18T11:27:15.349Z,99271.71
2018-09-18T11:29:43.878Z,99274.56
2018-09-18T11:32:12.558Z,99267.38
2018-09-18T11:34:41.129Z,99271.74
2018-09-18T11:37:09.693Z,99261.25
2018-09-18T11:39:38.216Z,99261.45
2018-09-18T11:42:06.785Z,99261.55
2018-09-18T11:44:41.821Z,99259.97
2018-09-18T11:47:13.392Z,99255.64
2018-09-18T11:49:46.042Z,99248.48
2018-09-18T11:52:17.890Z,99263.13
2018-09-18T11:54:49.080Z,99251.48
2018-09-18T11:57:26.864Z,99256.05
2018-09-18T12:00:00.184Z,99247.18
2018-09-18T12:02:31.802Z,99255.22
2018-09-18T12:05:01.991Z,99252.20
2018-09-18T12:07:37.069Z,99249.14
2018-09-18T12:10:10.622Z,99254.37
2018-09-18T12:12:41.358Z,99259.61
2018-09-18T12:15:13.100Z,99247.50
2018-09-18T12:17:47.201Z,99244.89
2018-09-18T12:20:18.351Z,99250.05
2018-09-18T12:22:48.509Z,99249.22
2018-09-18T12:25:17.133Z,99244.02
2018-09-18T12:27:50.002Z,99244.42
2018-09-18T12:30:22.781Z,99231.89
2018-09-18T12:32:55.651Z,99236.63
2018-09-18T12:35:26.813Z,99234.84
2018-09-18T12:37:58.009Z,99242.73
2018-09-18T12:40:28.740Z,99240.38
2018-09-18T12:43:02.705Z,99234.66
2018-09-18T12:45:32.388Z,99236.34
2018-09-18T12:48:01.340Z,99237.17
2018-09-18T12:50:36.948Z,99231.78
2018-09-18T12:53:08.577Z,99237.79
2018-09-18T12:55:42.438Z,99228.47
2018-09-18T12:58:18.280Z,99236.23
2018-09-18T13:00:50.489Z,99230.11
2018-09-18T13:03:23.317Z,99226.79
2018-09-18T13:05:55.070Z,99226.80
2018-09-18T13:08:24.160Z,99222.45
2018-09-18T13:10:58.045Z,99216.53
2018-09-18T13:13:31.272Z,99215.37
2018-09-18T13:16:11.522Z,99216.84
2018-09-18T13:18:54.780Z,99212.78
2018-09-18T13:21:32.266Z,99217.44
2018-09-18T13:24:12.435Z,99206.62
2018-09-18T13:26:48.599Z,99206.55
2018-09-18T13:29:24.679Z,99202.28
2018-09-18T13:32:02.105Z,99202.48
2018-09-18T13:34:38.635Z,99197.68
2018-09-18T13:37:15.607Z,99197.19
2018-09-18T13:39:51.102Z,99194.69
2018-09-18T13:42:27.465Z,99194.60
2018-09-18T13:45:04.509Z,99191.32
2018-09-18T13:47:39.281Z,99184.87
2018-09-18T13:50:20.822Z,99183.24
2018-09-18T13:52:58.412Z,99179.33
2018-09-18T13:55:42.579Z,99171.19
2018-09-18T13:58:22.148Z,99186.50
2018-09-18T14:00:59.717Z,99161.69
2018-09-18T14:03:39.677Z,99172.56
2018-09-18T14:06:16.286Z,99161.13
2018-09-18T14:08:54.228Z,99163.48
2018-09-18T14:11:32.576Z,99166.52
2018-09-18T14:14:14.973Z,99157.06
2018-09-18T14:16:52.728Z,99160.52
2018-09-18T14:19:28.370Z,99170.31
2018-09-18T14:22:07.849Z,99161.31
2018-09-18T14:24:44.158Z,99167.26
2018-09-18T14:27:21.597Z,99165.84
2018-09-18T14:29:57.011Z,99170.25
2018-09-18T14:32:34.683Z,99171.21
2018-09-18T14:35:11.111Z,99170.03
2018-09-18T14:37:50.190Z,99172.47
2018-09-18T14:40:30.681Z,99170.50
2018-09-18T14:43:06.387Z,99175.65
2018-09-18T14:45:41.307Z,99170.63
2018-09-18T14:48:18.198Z,99175.90
2018-09-18T14:50:56.884Z,99170.97
2018-09-18T14:53:32.938Z,99172.50
2018-09-18T14:56:10.259Z,99166.94
2018-09-18T14:58:51.355Z,99174.87
2018-09-18T15:01:28.910Z,99174.83
2018-09-18T15:04:10.374Z,99173.48
2018-09-18T15:06:49.549Z,99175.53
2018-09-18T15:09:25.337Z,99171.65
2018-09-18T15:12:03.009Z,99173.80
2018-09-18T15:14:38.700Z,99177.81
2018-09-18T15:17:21.219Z,99172.16
2018-09-18T15:20:00.631Z,99177.98
2018-09-18T15:22:38.206Z,99172.56
2018-09-18T15:25:15.113Z,99175.39
2018-09-18T15:27:55.260Z,99159.14
2018-09-18T15:30:31.421Z,99167.48
2018-09-18T15:33:08.700Z,99168.88
2018-09-18T15:38:38.757Z,99176.48
2018-09-18T15:41:15.389Z,99188.55
2018-09-18T15:43:50.098Z,99176.01
2018-09-18T15:46:29.877Z,99185.13
2018-09-18T15:49:05.903Z,99180.31
2018-09-18T15:51:42.941Z,99176.93
2018-09-18T15:54:17.590Z,99184.42
2018-09-18T15:56:54.307Z,99190.44
2018-09-18T15:59:30.203Z,99191.40
2018-09-18T16:02:11.263Z,99187.34
2018-09-18T16:04:55.186Z,99188.66
2018-09-18T16:07:39.287Z,99189.47
2018-09-18T16:10:18.431Z,99184.14
2018-09-18T16:13:05.151Z,99188.81
2018-09-18T16:15:44.756Z,99185.97
2018-09-18T16:18:22.408Z,99177.05
2018-09-18T16:20:57.774Z,99188.22
2018-09-18T16:23:38.862Z,99184.45
2018-09-18T16:26:10.898Z,99185.63
2018-09-18T16:28:39.596Z,99189.02
2018-09-18T16:31:08.182Z,99186.80
2018-09-18T16:33:39.298Z,99182.23
2018-09-18T16:36:09.536Z,99180.93
2018-09-18T16:38:42.388Z,99181.91
2018-09-18T16:41:19.844Z,99184.16
2018-09-18T16:43:50.015Z,99185.14
2018-09-18T16:46:19.501Z,99187.25
2018-09-18T16:48:52.397Z,99182.58
2018-09-18T16:51:21.529Z,99180.64
2018-09-18T16:53:50.075Z,99185.73
2018-09-18T16:56:18.653Z,99179.95
2018-09-18T16:58:47.238Z,99189.64
2018-09-18T17:01:15.851Z,99195.27
2018-09-18T17:03:44.404Z,99195.16
2018-09-18T17:06:12.976Z,99193.78
2018-09-18T17:08:41.586Z,99200.56
2018-09-18T17:11:10.200Z,99211.73
2018-09-18T17:13:38.710Z,99213.81
2018-09-18T17:16:07.304Z,99213.22
2018-09-18T17:18:35.850Z,99215.48
2018-09-18T17:21:04.456Z,99215.97
2018-09-18T17:23:32.991Z,99225.79
2018-09-18T17:26:01.546Z,99230.95
2018-09-18T17:28:30.211Z,99234.02
2018-09-18T17:31:05.106Z,99233.37
2018-09-18T17:33:41.047Z,99236.58
2018-09-18T17:38:49.705Z,99246.46
2018-09-18T17:41:18.582Z,99242.48
2018-09-18T17:43:47.100Z,99255.29
2018-09-18T17:46:25.460Z,99255.78
2018-09-18T17:49:00.519Z,99265.61
2018-09-18T17:51:34.551Z,99272.22
2018-09-18T17:54:09.790Z,99282.70
2018-09-18T17:56:44.801Z,99280.19
2018-09-18T17:59:16.170Z,99288.17
2018-09-18T18:01:46.124Z,99284.27
2018-09-18T18:04:25.091Z,99283.09
2018-09-18T18:06:56.005Z,99259.33
2018-09-18T18:09:27.127Z,99290.50
2018-09-18T18:11:57.980Z,99296.42
2018-09-18T18:14:32.044Z,99295.45
2018-09-18T18:17:10.369Z,99300.03
2018-09-18T18:19:39.835Z,99301.11
2018-09-18T18:22:18.112Z,99302.78
2018-09-18T18:24:47.242Z,99305.84
2018-09-18T18:27:16.093Z,99302.42
2018-09-18T18:29:44.624Z,99307.69
2018-09-18T18:32:13.188Z,99312.72
2018-09-18T18:34:41.710Z,99310.08
2018-09-18T18:37:10.345Z,99310.05
2018-09-18T18:39:39.132Z,99318.32
2018-09-18T18:42:08.838Z,99324.08
2018-09-18T18:44:37.948Z,99325.59
2018-09-18T18:47:08.599Z,99323.22
2018-09-18T18:49:40.172Z,99324.27
2018-09-18T18:52:15.045Z,99328.98
2018-09-18T18:54:49.319Z,99326.47
2018-09-18T18:57:20.348Z,99329.63
2018-09-18T18:59:50.222Z,99331.34
2018-09-18T19:02:24.821Z,99330.17
2018-09-18T19:04:57.884Z,99328.06
2018-09-18T19:07:27.891Z,99335.11
2018-09-18T19:09:56.497Z,99335.30
2018-09-18T19:12:25.308Z,99343.97
2018-09-18T19:14:53.858Z,99343.34
2018-09-18T19:17:22.426Z,99337.67
2018-09-18T19:19:51.098Z,99346.36
2018-09-18T19:24:47.304Z,99357.73
2018-09-18T19:27:16.109Z,99356.03
2018-09-18T19:29:44.957Z,99360.48
2018-09-18T19:32:14.089Z,99367.34
2018-09-18T19:34:43.363Z,99371.17
2018-09-18T19:37:11.926Z,99369.31
2018-09-18T19:39:42.137Z,99369.89
2018-09-18T19:42:11.963Z,99371.55
2018-09-18T19:44:43.217Z,99377.05
2018-09-18T19:47:11.785Z,99369.31
2018-09-18T19:49:45.339Z,99368.53
2018-09-18T19:52:19.910Z,99373.98
2018-09-18T19:54:48.665Z,99376.62
2018-09-18T19:57:17.223Z,99366.96
2018-09-18T19:59:45.756Z,99377.36
2018-09-18T20:02:14.376Z,99371.13
2018-09-18T20:04:42.907Z,99377.02
2018-09-18T20:07:11.469Z,99374.96
2018-09-18T20:09:41.976Z,99378.02
2018-09-18T20:12:10.629Z,99383.92
2018-09-18T20:14:39.212Z,99383.70
2018-09-18T20:17:07.778Z,99384.43
2018-09-18T20:19:39.720Z,99396.38
2018-09-18T20:22:11.297Z,99393.80
2018-09-18T20:24:41.195Z,99397.80
2018-09-18T20:27:13.651Z,99399.15
2018-09-18T20:29:44.671Z,99400.06
2018-09-18T20:32:14.336Z,99405.38
2018-09-18T20:34:44.376Z,99405.29
2018-09-18T20:37:15.504Z,99403.05
2018-09-18T20:39:44.223Z,99409.97
2018-09-18T20:42:14.580Z,99410.38
2018-09-18T20:44:44.455Z,99413.37
2018-09-18T20:47:13.108Z,99416.88
2018-09-18T20:49:43.319Z,99413.96
2018-09-18T20:52:14.751Z,99410.93
2018-09-18T20:54:47.057Z,99405.70
2018-09-18T20:57:18.653Z,99410.52
2018-09-18T20:59:49.854Z,99408.34
2018-09-18T21:02:20.584Z,99414.61
2018-09-18T21:04:50.835Z,99413.03
2018-09-18T21:07:22.932Z,99426.73
2018-09-18T21:09:52.571Z,99426.16
2018-09-18T21:12:23.427Z,99429.68
2018-09-18T21:14:54.166Z,99431.64
2018-09-18T21:17:24.174Z,99430.42
2018-09-18T21:19:55.839Z,99432.13
2018-09-18T21:22:26.440Z,99429.89
2018-09-18T21:26:07.043Z,99437.09
2018-09-18T21:28:37.355Z,99433.64
2018-09-18T21:31:07.150Z,99431.16
2018-09-18T21:33:37.545Z,99428.66
2018-09-18T21:36:08.376Z,99431.70
2018-09-18T21:38:38.527Z,99431.58
2018-09-18T21:41:07.710Z,99442.28
2018-09-18T21:43:38.872Z,99440.34
2018-09-18T21:46:08.382Z,99448.34
2018-09-18T21:48:40.098Z,99441.96
2018-09-18T21:51:09.334Z,99442.17
2018-09-18T21:53:38.105Z,99442.20
2018-09-18T21:56:06.637Z,99443.63
2018-09-18T21:58:42.306Z,99444.72
2018-09-18T22:01:12.114Z,99444.33
2018-09-18T22:03:42.365Z,99444.56
2018-09-18T22:06:13.225Z,99445.25
2018-09-18T22:08:45.906Z,99445.41
2018-09-18T22:11:18.940Z,99439.12
2018-09-18T22:13:49.180Z,99442.03
2018-09-18T22:16:19.873Z,99443.77
2018-09-18T22:18:51.910Z,99450.39
2018-09-18T22:21:23.186Z,99447.70
2018-09-18T22:23:52.665Z,99446.27
2018-09-18T22:26:24.247Z,99447.68
2018-09-18T22:28:52.887Z,99442.82
2018-09-18T22:31:21.364Z,99448.00
2018-09-18T22:33:49.921Z,99450.58
2018-09-18T22:36:18.448Z,99452.83
2018-09-18T22:38:47.040Z,99453.33
2018-09-18T22:41:15.617Z,99449.53
2018-09-18T22:43:44.164Z,99454.42
2018-09-18T22:46:12.725Z,99452.22
2018-09-18T22:48:41.252Z,99452.86
2018-09-18T22:51:09.824Z,99454.88
2018-09-18T22:53:38.344Z,99456.12
2018-09-18T22:56:06.914Z,99462.98
2018-09-18T22:58:35.451Z,99468.15
2018-09-18T23:01:04.030Z,99469.30
2018-09-18T23:03:32.580Z,99462.66
2018-09-18T23:06:01.150Z,99469.62
2018-09-18T23:08:29.704Z,99465.35
2018-09-18T23:10:58.267Z,99474.98
2018-09-18T23:13:26.793Z,99474.38
2018-09-18T23:15:55.354Z,99475.37
2018-09-18T23:18:23.879Z,99479.74
2018-09-18T23:20:52.461Z,99480.66
2018-09-18T23:23:20.992Z,99475.10
2018-09-18T23:25:49.596Z,99480.53
2018-09-18T23:28:18.165Z,99480.39
2018-09-18T23:30:46.730Z,99482.87
2018-09-18T23:33:15.257Z,99490.20
2018-09-18T23:35:43.822Z,99488.47
2018-09-18T23:38:12.351Z,99485.25
2018-09-18T23:40:40.914Z,99487.73
2018-09-18T23:43:09.486Z,99498.66
2018-09-18T23:45:38.053Z,99502.95
2018-09-18T23:48:06.601Z,99503.14
2018-09-18T23:50:35.164Z,99508.94
2018-09-18T23:53:03.716Z,99513.02
2018-09-18T23:55:32.684Z,99515.57
2018-09-18T23:58:01.213Z,99516.20
